Terminal Aerodrome Forecast
Issued by NWS

Home | Current Version | Previous Version | Text Only | Print | Product List | Glossary On
Versions: 1 2 3 4 5 6 7 8 9 10 11 12 13 14 15 16 17 18 19 20 21 22 23
000
FTUS43 KDMX 031733
TAFMCW
TAF
KMCW 031733Z 0318/0418 20008KT P6SM SCT250
     FM040000 33009KT 4SM -TSRA BR SCT015 BKN035CB
     FM040600 36007KT P6SM OVC050
     FM041400 04013KT P6SM SCT050 BKN100=

USA.gov is the U.S. government's official web portal to all federal, state and local government web resources and services.